createdAt,value
2018-05-15T00:01:14.828Z,5.43
2018-05-15T00:03:43.204Z,4.63
2018-05-15T00:06:11.516Z,5.80
2018-05-15T00:08:40.547Z,4.97
2018-05-15T00:11:08.836Z,5.20
2018-05-15T00:13:37.104Z,5.53
2018-05-15T00:16:05.392Z,4.60
2018-05-15T00:18:33.659Z,5.87
2018-05-15T00:21:01.953Z,5.43
2018-05-15T00:23:30.236Z,5.30
2018-05-15T00:25:58.612Z,5.80
2018-05-15T00:28:26.887Z,5.17
2018-05-15T00:30:55.180Z,5.73
2018-05-15T00:33:24.234Z,4.77
2018-05-15T00:35:52.515Z,4.97
2018-05-15T00:38:20.786Z,6.17
2018-05-15T00:40:49.067Z,5.87
2018-05-15T00:43:17.350Z,5.53
2018-05-15T00:45:46.405Z,5.80
2018-05-15T00:48:15.460Z,5.67
2018-05-15T00:50:44.503Z,5.33
2018-05-15T00:53:12.759Z,6.50
2018-05-15T00:55:44.254Z,5.77
2018-05-15T00:58:13.239Z,6.47
2018-05-15T01:00:41.524Z,5.20
2018-05-15T01:03:09.910Z,5.10
2018-05-15T01:05:38.204Z,5.33
2018-05-15T01:08:06.487Z,5.77
2018-05-15T01:10:36.284Z,5.50
2018-05-15T01:13:04.564Z,6.30
2018-05-15T01:15:32.842Z,5.87
2018-05-15T01:18:01.116Z,5.63
2018-05-15T01:20:30.188Z,6.23
2018-05-15T01:22:58.475Z,6.07
2018-05-15T01:25:26.774Z,5.67
2018-05-15T01:27:55.041Z,5.33
2018-05-15T01:30:23.415Z,5.73
2018-05-15T01:32:52.083Z,6.20
2018-05-15T01:35:20.356Z,5.70
2018-05-15T01:37:48.677Z,6.60
2018-05-15T01:40:17.707Z,5.50
2018-05-15T01:42:46.000Z,5.70
2018-05-15T01:45:14.395Z,5.97
2018-05-15T01:47:43.451Z,5.77
2018-05-15T01:50:11.849Z,6.50
2018-05-15T01:52:40.131Z,5.30
2018-05-15T01:55:08.396Z,6.10
2018-05-15T01:57:36.695Z,6.47
2018-05-15T02:00:04.982Z,5.77
2018-05-15T02:02:33.275Z,6.17
2018-05-15T02:05:02.331Z,5.70
2018-05-15T02:07:30.619Z,6.20
2018-05-15T02:10:05.039Z,6.37
2018-05-15T02:12:33.312Z,5.60
2018-05-15T02:15:01.589Z,5.93
2018-05-15T02:17:30.683Z,6.73
2018-05-15T02:19:58.947Z,5.73
2018-05-15T02:22:27.262Z,5.50
2018-05-15T02:24:55.528Z,6.97
2018-05-15T02:27:23.824Z,6.30
2018-05-15T02:29:52.120Z,5.27
2018-05-15T02:32:20.395Z,6.80
2018-05-15T02:34:48.683Z,5.87
2018-05-15T02:37:16.957Z,6.27
2018-05-15T02:39:45.232Z,6.20
2018-05-15T02:42:13.512Z,6.10
2018-05-15T02:44:41.791Z,7.10
2018-05-15T02:47:10.055Z,6.90
2018-05-15T02:49:38.344Z,6.80
2018-05-15T02:52:06.607Z,6.17
2018-05-15T02:54:34.902Z,6.03
2018-05-15T02:57:03.182Z,6.30
2018-05-15T02:59:31.450Z,6.47
2018-05-15T03:01:59.711Z,6.57
2018-05-15T03:04:28.000Z,6.77
2018-05-15T03:06:56.295Z,6.60
2018-05-15T03:09:24.573Z,6.47
2018-05-15T03:11:52.856Z,7.27
2018-05-15T03:14:23.459Z,6.27
2018-05-15T03:16:51.931Z,6.70
2018-05-15T03:19:20.211Z,7.10
2018-05-15T03:21:48.495Z,6.03
2018-05-15T03:24:16.763Z,6.43
2018-05-15T03:26:45.040Z,5.97
2018-05-15T03:29:13.360Z,7.60
2018-05-15T03:31:41.620Z,7.47
2018-05-15T03:34:09.928Z,7.00
2018-05-15T03:36:38.400Z,6.73
2018-05-15T03:39:06.676Z,8.70
2018-05-15T03:41:35.718Z,6.63
2018-05-15T03:44:04.059Z,8.23
2018-05-15T03:46:33.149Z,6.90
2018-05-15T03:49:01.433Z,9.37
2018-05-15T03:51:30.491Z,6.83
2018-05-15T03:53:58.776Z,8.80
2018-05-15T03:56:27.040Z,7.30
2018-05-15T03:58:55.320Z,7.40
2018-05-15T04:01:35.592Z,6.60
2018-05-15T04:04:16.707Z,6.20
2018-05-15T04:06:57.767Z,6.70
2018-05-15T04:09:26.027Z,6.90
2018-05-15T04:11:54.296Z,7.33
2018-05-15T04:14:22.573Z,10.70
2018-05-15T04:16:50.870Z,6.57
2018-05-15T04:19:19.135Z,8.23
2018-05-15T04:21:47.421Z,8.30
2018-05-15T04:24:15.703Z,8.83
2018-05-15T04:26:43.963Z,7.20
2018-05-15T04:29:12.231Z,8.00
2018-05-15T04:31:40.531Z,7.63
2018-05-15T04:34:09.576Z,6.87
2018-05-15T04:36:37.831Z,8.43
2018-05-15T04:39:06.126Z,6.87
2018-05-15T04:41:34.402Z,6.97
2018-05-15T04:44:02.753Z,7.90
2018-05-15T04:46:30.997Z,7.70
2018-05-15T04:48:59.284Z,8.00
2018-05-15T04:51:28.334Z,7.60
2018-05-15T04:53:56.623Z,8.73
2018-05-15T04:56:24.923Z,8.20
2018-05-15T04:58:53.196Z,8.87
2018-05-15T05:01:21.484Z,7.30
2018-05-15T05:03:50.898Z,7.70
2018-05-15T05:06:19.987Z,8.77
2018-05-15T05:08:49.008Z,7.90
2018-05-15T05:11:17.281Z,9.13
2018-05-15T05:13:45.564Z,7.60
2018-05-15T05:16:13.981Z,8.23
2018-05-15T05:18:42.252Z,7.87
2018-05-15T05:21:10.516Z,7.80
2018-05-15T05:23:38.792Z,8.23
2018-05-15T05:26:07.106Z,8.30
2018-05-15T05:28:35.349Z,8.57
2018-05-15T05:31:03.615Z,8.30
2018-05-15T05:33:31.917Z,8.67
2018-05-15T05:36:00.199Z,7.43
2018-05-15T05:38:28.534Z,7.80
2018-05-15T05:40:56.819Z,7.20
2018-05-15T05:43:25.108Z,7.90
2018-05-15T05:45:53.415Z,9.10
2018-05-15T05:48:22.456Z,7.73
2018-05-15T05:50:50.726Z,8.80
2018-05-15T05:53:19.102Z,7.70
2018-05-15T05:55:48.236Z,8.10
2018-05-15T05:58:16.511Z,8.03
2018-05-15T06:00:44.775Z,8.90
2018-05-15T06:03:13.053Z,9.27
2018-05-15T06:05:41.326Z,12.10
2018-05-15T06:08:09.666Z,9.33
2018-05-15T06:10:38.692Z,8.77
2018-05-15T06:13:06.971Z,8.13
2018-05-15T06:15:35.235Z,9.10
2018-05-15T06:18:03.528Z,8.97
2018-05-15T06:20:31.804Z,8.80
2018-05-15T06:23:00.090Z,9.33
2018-05-15T06:25:28.364Z,7.63
2018-05-15T06:27:58.159Z,8.73
2018-05-15T06:30:26.485Z,9.20
2018-05-15T06:32:54.774Z,8.03
2018-05-15T06:35:23.083Z,8.80
2018-05-15T06:37:51.379Z,9.80
2018-05-15T06:40:19.675Z,7.87
2018-05-15T06:42:47.958Z,8.00
2018-05-15T06:45:16.237Z,6.90
2018-05-15T06:47:45.301Z,8.10
2018-05-15T06:50:13.572Z,10.90
2018-05-15T06:52:41.839Z,7.90
2018-05-15T06:55:10.134Z,7.70
2018-05-15T06:57:38.418Z,8.30
2018-05-15T07:00:06.708Z,8.67
2018-05-15T07:02:35.004Z,8.00
2018-05-15T07:05:04.171Z,8.30
2018-05-15T07:07:32.447Z,8.17
2018-05-15T07:10:00.759Z,7.47
2018-05-15T07:12:29.038Z,8.37
2018-05-15T07:14:58.448Z,8.70
2018-05-15T07:17:26.743Z,7.83
2018-05-15T07:19:55.036Z,7.97
2018-05-15T07:22:23.299Z,8.40
2018-05-15T07:24:51.590Z,7.93
2018-05-15T07:27:20.065Z,7.80
2018-05-15T07:29:48.155Z,8.40
2018-05-15T07:32:16.544Z,9.60
2018-05-15T07:34:44.823Z,7.67
2018-05-15T07:37:13.110Z,7.80
2018-05-15T07:39:41.380Z,7.03
2018-05-15T07:42:09.679Z,8.63
2018-05-15T07:44:38.735Z,6.70
2018-05-15T07:47:06.992Z,6.90
2018-05-15T07:49:35.295Z,7.80
2018-05-15T07:52:03.555Z,7.70
2018-05-15T07:54:31.831Z,7.20
2018-05-15T07:57:00.143Z,8.57
2018-05-15T07:59:28.491Z,7.43
2018-05-15T08:01:56.754Z,8.53
2018-05-15T08:04:25.033Z,8.67
2018-05-15T08:06:53.327Z,8.30
2018-05-15T08:09:21.699Z,8.40
2018-05-15T08:11:49.967Z,8.20
2018-05-15T08:14:18.244Z,8.00
2018-05-15T08:16:46.503Z,6.63
2018-05-15T08:19:14.829Z,8.37
2018-05-15T08:21:43.098Z,7.70
2018-05-15T08:24:11.372Z,7.77
2018-05-15T08:26:40.432Z,9.43
2018-05-15T08:29:08.753Z,7.47
2018-05-15T08:31:37.073Z,7.97
2018-05-15T08:34:05.368Z,8.03
2018-05-15T08:36:33.683Z,8.93
2018-05-15T08:39:01.948Z,8.43
2018-05-15T08:41:30.219Z,8.50
2018-05-15T08:43:58.475Z,7.83
2018-05-15T08:46:26.771Z,9.50
2018-05-15T08:48:55.147Z,9.40
2018-05-15T08:51:24.235Z,9.10
2018-05-15T08:53:52.515Z,9.20
2018-05-15T08:56:20.926Z,9.80
2018-05-15T08:58:49.168Z,8.90
2018-05-15T09:01:17.458Z,8.17
2018-05-15T09:03:45.833Z,8.13
2018-05-15T09:06:14.104Z,8.40
2018-05-15T09:08:43.951Z,7.70
2018-05-15T09:11:12.219Z,7.30
2018-05-15T09:13:40.571Z,6.67
2018-05-15T09:16:08.836Z,6.50
2018-05-15T09:18:37.127Z,6.40
2018-05-15T09:21:05.511Z,7.40
2018-05-15T09:23:33.792Z,8.13
2018-05-15T09:26:02.159Z,6.73
2018-05-15T09:28:30.487Z,6.80
2018-05-15T09:30:58.789Z,6.93
2018-05-15T09:33:27.096Z,6.37
2018-05-15T09:35:55.460Z,6.30
2018-05-15T09:38:23.744Z,6.10
2018-05-15T09:40:52.035Z,6.33
2018-05-15T09:43:32.199Z,8.73
2018-05-15T09:46:00.392Z,8.20
2018-05-15T09:48:28.699Z,6.50
2018-05-15T09:50:56.987Z,7.10
2018-05-15T09:53:25.288Z,6.17
2018-05-15T09:55:53.657Z,4.90
2018-05-15T09:58:21.958Z,5.63
2018-05-15T10:00:50.309Z,5.40
2018-05-15T10:03:18.589Z,6.63
2018-05-15T10:05:46.875Z,5.83
2018-05-15T10:08:15.916Z,5.17
2018-05-15T10:10:44.233Z,5.33
2018-05-15T10:13:12.607Z,6.13
2018-05-15T10:15:40.887Z,5.13
2018-05-15T10:18:09.179Z,5.47
2018-05-15T10:20:38.242Z,5.80
2018-05-15T10:23:06.513Z,5.80
2018-05-15T10:25:34.812Z,5.60
2018-05-15T10:28:03.192Z,5.90
2018-05-15T10:30:31.463Z,5.73
2018-05-15T10:32:59.740Z,5.93
2018-05-15T10:35:28.116Z,5.90
2018-05-15T10:37:56.384Z,5.77
2018-05-15T10:40:24.651Z,5.73
2018-05-15T10:42:52.964Z,5.73
2018-05-15T10:45:22.040Z,7.27
2018-05-15T10:47:51.843Z,6.67
2018-05-15T10:50:20.132Z,6.53
2018-05-15T10:52:48.448Z,6.00
2018-05-15T10:55:16.796Z,6.20
2018-05-15T10:57:45.163Z,6.30
2018-05-15T11:00:13.486Z,6.10
2018-05-15T11:02:41.763Z,5.83
2018-05-15T11:05:10.051Z,6.17
2018-05-15T11:07:38.373Z,5.30
2018-05-15T11:10:06.655Z,5.40
2018-05-15T11:12:35.787Z,6.40
2018-05-15T11:15:05.539Z,6.73
2018-05-15T11:17:33.818Z,6.13
2018-05-15T11:20:14.128Z,5.83
2018-05-15T11:22:55.179Z,5.53
2018-05-15T11:25:23.552Z,4.83
2018-05-15T11:27:51.962Z,5.50
2018-05-15T11:30:20.255Z,5.60
2018-05-15T11:32:48.568Z,5.20
2018-05-15T11:35:16.836Z,5.77
2018-05-15T11:37:45.243Z,5.23
2018-05-15T11:40:13.703Z,6.20
2018-05-15T11:42:42.103Z,5.20
2018-05-15T11:45:10.392Z,6.63
2018-05-15T11:47:38.814Z,5.73
2018-05-15T11:50:07.777Z,5.70
2018-05-15T11:52:36.596Z,5.83
2018-05-15T11:55:04.431Z,5.80
2018-05-15T11:57:32.780Z,6.27
2018-05-15T12:00:01.228Z,5.33
2018-05-15T12:02:30.147Z,5.20
2018-05-15T12:04:58.467Z,5.40
2018-05-15T12:07:27.776Z,4.73
2018-05-15T12:09:56.088Z,5.57
2018-05-15T12:12:24.471Z,5.83
2018-05-15T12:14:52.768Z,6.30
2018-05-15T12:17:21.839Z,5.03
2018-05-15T12:19:50.140Z,5.70
2018-05-15T12:22:18.498Z,5.70
2018-05-15T12:24:48.328Z,5.67
2018-05-15T12:27:17.377Z,5.53
2018-05-15T12:29:45.719Z,6.00
2018-05-15T12:32:14.773Z,5.37
2018-05-15T12:34:43.103Z,5.93
2018-05-15T12:37:12.139Z,5.80
2018-05-15T12:39:40.444Z,6.17
2018-05-15T12:42:09.646Z,6.10
2018-05-15T12:44:37.791Z,5.90
2018-05-15T12:47:07.578Z,6.07
2018-05-15T12:49:35.901Z,5.67
2018-05-15T12:52:04.947Z,5.87
2018-05-15T12:54:33.239Z,5.60
2018-05-15T12:57:01.508Z,5.57
2018-05-15T12:59:29.801Z,5.43
2018-05-15T13:01:58.976Z,5.27
2018-05-15T13:04:27.275Z,6.10
2018-05-15T13:06:55.571Z,5.63
2018-05-15T13:09:23.836Z,4.97
2018-05-15T13:11:52.150Z,5.70
2018-05-15T13:14:20.420Z,4.70
2018-05-15T13:16:49.448Z,5.67
2018-05-15T13:19:17.724Z,5.50
2018-05-15T13:21:45.991Z,4.50
2018-05-15T13:24:14.288Z,5.67
2018-05-15T13:26:42.548Z,4.50
2018-05-15T13:29:10.862Z,4.30
2018-05-15T13:31:39.168Z,5.47
2018-05-15T13:34:08.236Z,5.07
2018-05-15T13:36:36.531Z,5.40
2018-05-15T13:39:05.710Z,4.40
2018-05-15T13:41:34.011Z,4.50
2018-05-15T13:44:02.262Z,5.50
2018-05-15T13:46:30.536Z,4.70
2018-05-15T13:48:58.833Z,5.70
2018-05-15T13:51:27.123Z,5.33
2018-05-15T13:53:56.162Z,5.20
2018-05-15T13:56:24.463Z,5.43
2018-05-15T13:58:52.756Z,5.60
2018-05-15T14:01:21.025Z,5.60
2018-05-15T14:03:50.151Z,5.07
2018-05-15T14:06:18.470Z,5.07
2018-05-15T14:08:46.723Z,4.20
2018-05-15T14:11:14.975Z,4.70
2018-05-15T14:13:43.290Z,4.70
2018-05-15T14:16:11.549Z,4.97
2018-05-15T14:18:40.584Z,5.30
2018-05-15T14:21:08.854Z,7.03
2018-05-15T14:23:37.157Z,4.97
2018-05-15T14:26:05.420Z,5.70
2018-05-15T14:28:33.728Z,5.20
2018-05-15T14:31:02.744Z,5.10
2018-05-15T14:33:31.024Z,4.77
2018-05-15T14:35:59.286Z,5.37
2018-05-15T14:38:27.572Z,5.30
2018-05-15T14:40:55.848Z,5.47
2018-05-15T14:43:25.040Z,5.53
2018-05-15T14:45:53.563Z,4.90
2018-05-15T14:48:21.844Z,6.00
2018-05-15T14:54:08.535Z,5.40
2018-05-15T14:56:36.835Z,5.40
2018-05-15T14:59:05.183Z,5.40
2018-05-15T15:01:33.428Z,5.57
2018-05-15T15:04:01.788Z,6.37
2018-05-15T15:06:30.039Z,6.10
2018-05-15T15:08:58.337Z,4.83
2018-05-15T15:11:27.403Z,5.33
2018-05-15T15:13:55.690Z,5.53
2018-05-15T15:16:24.797Z,5.33
2018-05-15T15:18:53.056Z,6.93
2018-05-15T15:21:21.348Z,6.83
2018-05-15T15:23:49.732Z,5.30
2018-05-15T15:26:18.063Z,4.90
2018-05-15T15:28:46.387Z,5.40
2018-05-15T15:31:14.672Z,5.17
2018-05-15T15:33:42.991Z,4.80
2018-05-15T15:36:11.263Z,5.63
2018-05-15T15:38:39.622Z,6.37
2018-05-15T15:41:08.680Z,6.03
2018-05-15T15:43:36.955Z,6.03
2018-05-15T15:46:05.247Z,5.30
2018-05-15T15:48:34.291Z,5.10
2018-05-15T15:51:02.563Z,4.90
2018-05-15T15:53:30.840Z,5.10
2018-05-15T15:55:59.932Z,5.80
2018-05-15T15:58:28.155Z,5.60
2018-05-15T16:00:56.528Z,6.23
2018-05-15T16:03:24.820Z,5.43
2018-05-15T16:05:53.895Z,5.40
2018-05-15T16:08:22.147Z,4.87
2018-05-15T16:10:50.444Z,5.10
2018-05-15T16:13:18.734Z,4.83
2018-05-15T16:15:47.859Z,4.40
2018-05-15T16:18:16.191Z,4.93
2018-05-15T16:20:44.468Z,3.73
2018-05-15T16:23:12.759Z,4.30
2018-05-15T16:25:42.592Z,3.87
2018-05-15T16:28:10.881Z,6.33
2018-05-15T16:30:39.919Z,4.50
2018-05-15T16:33:08.269Z,4.87
2018-05-15T16:35:37.306Z,4.40
2018-05-15T16:38:05.580Z,4.47
2018-05-15T16:40:33.853Z,3.50
2018-05-15T16:43:02.145Z,3.13
2018-05-15T16:45:30.655Z,3.20
2018-05-15T16:47:58.920Z,3.07
2018-05-15T16:50:27.188Z,3.60
2018-05-15T16:52:55.503Z,5.50
2018-05-15T16:55:23.768Z,5.37
2018-05-15T16:57:52.092Z,4.73
2018-05-15T17:00:20.363Z,5.17
2018-05-15T17:02:49.555Z,5.63
2018-05-15T17:05:17.851Z,5.17
2018-05-15T17:07:46.158Z,6.00
2018-05-15T17:10:14.491Z,5.87
2018-05-15T17:12:42.778Z,6.40
2018-05-15T17:15:11.031Z,5.10
2018-05-15T17:17:39.323Z,4.97
2018-05-15T17:20:07.620Z,5.40
2018-05-15T17:22:35.892Z,4.93
2018-05-15T17:25:04.195Z,4.87
2018-05-15T17:27:33.232Z,5.37
2018-05-15T17:30:01.492Z,5.33
2018-05-15T17:32:29.791Z,4.57
2018-05-15T17:34:58.050Z,4.90
2018-05-15T17:37:26.334Z,6.07
2018-05-15T17:39:54.615Z,7.03
2018-05-15T17:42:22.923Z,7.87
2018-05-15T17:44:51.975Z,6.67
2018-05-15T17:47:20.295Z,6.83
2018-05-15T17:49:48.540Z,7.43
2018-05-15T17:52:16.847Z,7.60
2018-05-15T17:54:45.953Z,7.40
2018-05-15T17:57:14.997Z,7.43
2018-05-15T17:59:43.271Z,8.17
2018-05-15T18:02:11.597Z,8.50
2018-05-15T18:04:39.847Z,8.33
2018-05-15T18:07:08.320Z,8.97
2018-05-15T18:09:36.584Z,8.93
2018-05-15T18:12:04.885Z,8.93
2018-05-15T18:14:33.162Z,8.47
2018-05-15T18:17:01.440Z,8.97
2018-05-15T18:19:30.105Z,9.20
2018-05-15T18:21:59.203Z,8.17
2018-05-15T18:24:27.474Z,8.43
2018-05-15T18:26:55.814Z,5.63
2018-05-15T18:29:24.865Z,7.93
2018-05-15T18:31:53.127Z,7.83
2018-05-15T18:34:21.419Z,6.40
2018-05-15T18:36:49.739Z,6.97
2018-05-15T18:39:18.028Z,7.17
2018-05-15T18:41:46.336Z,7.73
2018-05-15T18:44:14.616Z,7.07
2018-05-15T18:46:42.951Z,7.90
2018-05-15T18:49:11.207Z,7.47
2018-05-15T18:51:39.571Z,8.93
2018-05-15T18:54:07.845Z,8.33
2018-05-15T18:56:38.086Z,8.37
2018-05-15T18:59:06.451Z,8.27
2018-05-15T19:01:34.756Z,8.17
2018-05-15T19:04:03.833Z,8.33
2018-05-15T19:06:32.892Z,7.43
2018-05-15T19:09:01.216Z,8.73
2018-05-15T19:11:30.252Z,7.17
2018-05-15T19:13:59.593Z,6.80
2018-05-15T19:16:27.839Z,7.33
2018-05-15T19:18:56.168Z,7.13
2018-05-15T19:21:24.687Z,6.80
2018-05-15T19:23:52.983Z,6.20
2018-05-15T19:26:21.247Z,6.10
2018-05-15T19:28:49.535Z,6.10
2018-05-15T19:31:17.812Z,7.10
2018-05-15T19:33:51.928Z,10.97
2018-05-15T19:36:20.732Z,6.83
2018-05-15T19:38:49.131Z,6.80
2018-05-15T19:41:20.007Z,6.40
2018-05-15T19:43:48.552Z,7.30
2018-05-15T19:46:16.999Z,7.10
2018-05-15T19:48:46.060Z,6.83
2018-05-15T19:51:14.337Z,6.97
2018-05-15T19:53:42.655Z,6.60
2018-05-15T19:56:11.702Z,5.43
2018-05-15T19:58:40.023Z,6.40
2018-05-15T20:01:08.911Z,6.20
2018-05-15T20:03:37.176Z,6.90
2018-05-15T20:06:05.487Z,5.27
2018-05-15T20:08:34.547Z,6.73
2018-05-15T20:11:02.821Z,6.33
2018-05-15T20:13:31.240Z,6.40
2018-05-15T20:16:00.712Z,5.70
2018-05-15T20:18:29.201Z,7.20
2018-05-15T20:20:58.259Z,8.50
2018-05-15T20:23:26.516Z,6.73
2018-05-15T20:25:54.804Z,5.93
2018-05-15T20:28:24.215Z,6.30
2018-05-15T20:30:52.479Z,6.57
2018-05-15T20:33:20.759Z,6.00
2018-05-15T20:35:49.508Z,5.90
2018-05-15T20:38:18.547Z,5.80
2018-05-15T20:40:46.860Z,6.13
2018-05-15T20:43:15.138Z,5.83
2018-05-15T20:45:43.418Z,5.00
2018-05-15T20:48:11.679Z,5.90
2018-05-15T20:50:39.954Z,6.40
2018-05-15T20:53:08.708Z,6.80
2018-05-15T20:55:37.030Z,6.17
2018-05-15T20:58:05.309Z,6.40
2018-05-15T21:00:33.592Z,6.20
2018-05-15T21:03:01.891Z,6.20
2018-05-15T21:05:30.910Z,6.00
2018-05-15T21:07:59.211Z,5.77
2018-05-15T21:10:27.484Z,5.83
2018-05-15T21:12:55.755Z,6.30
2018-05-15T21:15:24.044Z,5.27
2018-05-15T21:17:52.311Z,5.20
2018-05-15T21:20:21.170Z,5.40
2018-05-15T21:22:50.191Z,6.13
2018-05-15T21:25:18.480Z,5.43
2018-05-15T21:27:48.324Z,5.53
2018-05-15T21:30:16.591Z,4.97
2018-05-15T21:32:45.646Z,5.50
2018-05-15T21:35:13.945Z,5.50
2018-05-15T21:37:42.220Z,5.97
2018-05-15T21:40:10.508Z,5.10
2018-05-15T21:42:38.826Z,6.47
2018-05-15T21:45:07.842Z,7.90
2018-05-15T21:47:36.107Z,7.30
2018-05-15T21:50:04.408Z,8.60
2018-05-15T21:52:32.704Z,7.60
2018-05-15T21:55:00.980Z,9.80
2018-05-15T21:57:29.355Z,9.53
2018-05-15T21:59:57.654Z,11.60
2018-05-15T22:02:25.931Z,10.67
2018-05-15T22:04:54.223Z,9.87
2018-05-15T22:07:22.510Z,9.60
2018-05-15T22:09:50.803Z,9.30
2018-05-15T22:12:30.940Z,9.60
2018-05-15T22:15:11.311Z,11.77
2018-05-15T22:17:51.348Z,12.23
2018-05-15T22:20:31.656Z,10.03
2018-05-15T22:23:00.152Z,12.57
2018-05-15T22:25:28.453Z,12.17
2018-05-15T22:27:56.747Z,12.63
2018-05-15T22:30:25.035Z,12.47
2018-05-15T22:32:53.919Z,12.73
2018-05-15T22:35:22.223Z,13.40
2018-05-15T22:37:50.527Z,14.10
2018-05-15T22:40:18.816Z,14.80
2018-05-15T22:42:47.889Z,15.67
2018-05-15T22:45:16.273Z,14.87
2018-05-15T22:47:45.346Z,14.10
2018-05-15T22:50:13.746Z,15.67
2018-05-15T22:52:42.048Z,15.00
2018-05-15T22:55:11.092Z,14.57
2018-05-15T22:57:39.383Z,14.33
2018-05-15T23:00:07.689Z,14.67
2018-05-15T23:02:36.743Z,14.27
2018-05-15T23:05:05.041Z,15.37
2018-05-15T23:07:33.319Z,14.97
2018-05-15T23:10:01.596Z,15.60
2018-05-15T23:12:29.899Z,13.40
2018-05-15T23:14:58.963Z,13.57
2018-05-15T23:17:27.340Z,15.00
2018-05-15T23:19:56.436Z,15.30
2018-05-15T23:22:45.580Z,16.83
2018-05-15T23:25:13.867Z,16.23
2018-05-15T23:27:42.161Z,17.53
2018-05-15T23:30:10.464Z,18.30
2018-05-15T23:32:38.749Z,18.43
2018-05-15T23:35:07.033Z,20.00
2018-05-15T23:37:35.327Z,20.07
2018-05-15T23:40:03.608Z,21.27
2018-05-15T23:42:31.892Z,22.83
2018-05-15T23:45:00.208Z,22.40
2018-05-15T23:47:28.482Z,22.17
2018-05-15T23:49:57.555Z,25.00
2018-05-15T23:52:25.842Z,26.27
2018-05-15T23:54:54.911Z,26.90
2018-05-15T23:57:23.323Z,30.97
2018-05-15T23:59:52.391Z,30.93
